KLWD

Lamoni Municipal Airport

Lamoni, Iowa, USA
METAR KLWD 151253Z AUTO 23010KT 10SM OVC055 M01/M06 A3004 RMK AO2 SLP185 T10111061
Observed Flight Rules
Dec-15 @ 12:53 UTC (57 minutes ago) Visual Flight Rules
Wind Visibility Clouds
230° at 10 knots 10 miles
  • Overcast at 5,500' AGL
Temperatures Readings
Current -1°C / 30°F
Dewpoint -6°C / 21°F
Humidity 69%
Altimeter 30.04" Hg
Pressure 1018.5 hPa
Elevation 346
METAR KLWD 151253Z AUTO 23010KT 10SM OVC055 M01/M06 A3004 RMK AO2 SLP185 T10111061
Observed Flight Rules
Dec-15 @ 12:53 UTC
(57 minutes ago)
VFR
Wind Visibility
230° at 10 knots 10 miles
Clouds
  • Overcast at 5,500' AGL
Temperature Dewpoint
-1°C / 30°F -6°C / 21°F
Humidity Altimeter Pressure
69% 30.04" Hg 1018.5 hPa